Time;durP1;ratioP1;P1;durP2;ratioP2;P2;SDS_P1;SDS_P2;PMS_P1;PMS_P2;Temp;Humidity;BMP_temperature;BMP_pressure;BME280_temperature;BME280_humidity;BME280_pressure;Samples;Min_cycle;Max_cycle;Signal;HPM_P1;HPM_P2
2024/01/17 00:02:11;;;;;;;7.68;4.88;;;;;-3.20;97067.00;;;;5071870;28;20045;-69
2024/01/17 00:04:37;;;;;;;9.30;4.80;;;;;-3.20;97068.00;;;;5072139;28;20040;-69
2024/01/17 00:07:04;;;;;;;14.15;5.70;;;;;-3.40;97055.00;;;;5071745;28;20048;-68
2024/01/17 00:09:31;;;;;;;11.40;5.28;;;;;-3.50;97067.00;;;;5071610;28;20102;-69
2024/01/17 00:11:58;;;;;;;11.30;5.05;;;;;-3.50;97066.00;;;;5071739;28;20052;-69
2024/01/17 00:14:25;;;;;;;8.70;4.97;;;;;-3.30;97067.00;;;;5054528;28;20098;-69
2024/01/17 00:16:51;;;;;;;10.32;5.38;;;;;-3.20;97061.00;;;;5071448;28;20384;-69
2024/01/17 00:19:18;;;;;;;12.23;6.68;;;;;-3.20;97073.00;;;;5071105;28;20052;-67
2024/01/17 00:21:47;;;;;;;12.57;6.35;;;;;-3.10;97080.00;;;;5072644;28;20414;-68
2024/01/17 00:24:14;;;;;;;11.98;6.20;;;;;-3.10;97061.00;;;;5071945;28;20515;-68
2024/01/17 00:26:40;;;;;;;10.20;5.22;;;;;-3.10;97048.00;;;;5072669;28;20050;-68
2024/01/17 00:29:07;;;;;;;11.73;6.30;;;;;-3.20;97040.00;;;;5054917;28;20082;-69
2024/01/17 00:31:34;;;;;;;11.50;5.10;;;;;-3.30;97049.00;;;;5072712;28;20058;-69
2024/01/17 00:34:00;;;;;;;8.05;4.95;;;;;-3.40;97038.00;;;;5072100;28;20123;-68
2024/01/17 00:36:27;;;;;;;9.43;4.90;;;;;-3.40;97042.00;;;;5071539;28;20528;-68
2024/01/17 00:38:54;;;;;;;7.93;4.80;;;;;-3.40;97038.00;;;;5071378;28;20044;-68
2024/01/17 00:41:23;;;;;;;9.95;4.80;;;;;-3.30;97045.00;;;;5072902;28;20037;-68
2024/01/17 00:43:50;;;;;;;9.43;5.32;;;;;-3.20;97050.00;;;;5072013;28;20040;-70
2024/01/17 00:46:17;;;;;;;11.73;5.38;;;;;-3.20;97049.00;;;;5071700;28;20378;-68
2024/01/17 00:48:47;;;;;;;9.15;4.53;;;;;-3.10;97042.00;;;;5072411;28;20481;-70
2024/01/17 00:51:23;;;;;;;11.23;5.07;;;;;-3.20;97031.00;;;;5072449;28;20049;-70
2024/01/17 00:53:53;;;;;;;7.00;5.00;;;;;-3.30;97035.00;;;;5070611;28;20045;-68
2024/01/17 00:56:19;;;;;;;8.02;4.85;;;;;-3.30;97028.00;;;;5071524;28;20055;-69
2024/01/17 00:58:46;;;;;;;7.90;5.13;;;;;-3.40;97014.00;;;;5072488;28;20059;-69
2024/01/17 01:01:15;;;;;;;8.07;5.13;;;;;-3.40;97027.00;;;;5071395;28;20044;-69
2024/01/17 01:03:42;;;;;;;7.15;4.53;;;;;-3.30;97025.00;;;;5070662;28;20127;-68
2024/01/17 01:06:09;;;;;;;7.93;4.57;;;;;-3.30;97022.00;;;;5072775;28;20045;-68
2024/01/17 01:08:38;;;;;;;6.63;4.00;;;;;-3.20;96997.00;;;;5071247;28;20571;-70
2024/01/17 01:11:05;;;;;;;7.30;4.30;;;;;-3.10;96986.00;;;;5071059;28;20493;-67
2024/01/17 01:13:32;;;;;;;6.93;4.25;;;;;-3.10;96993.00;;;;5070392;28;20059;-69
2024/01/17 01:15:58;;;;;;;7.80;4.82;;;;;-3.00;96987.00;;;;5072207;28;20139;-68
2024/01/17 01:18:25;;;;;;;11.68;5.32;;;;;-2.90;96989.00;;;;5072559;28;20467;-69
2024/01/17 01:20:52;;;;;;;10.65;4.85;;;;;-3.00;96991.00;;;;5072768;28;20044;-68
2024/01/17 01:23:18;;;;;;;12.45;5.60;;;;;-3.10;96979.00;;;;5072845;28;20051;-68
2024/01/17 01:25:45;;;;;;;9.80;5.05;;;;;-3.20;96985.00;;;;5072080;28;20439;-69
2024/01/17 01:28:12;;;;;;;8.60;4.80;;;;;-3.20;96981.00;;;;5071496;28;20067;-68
2024/01/17 01:30:38;;;;;;;11.10;5.43;;;;;-3.10;96971.00;;;;5072563;28;20040;-68
2024/01/17 01:33:05;;;;;;;9.65;4.97;;;;;-3.20;96966.00;;;;5072771;28;20045;-68
2024/01/17 01:35:32;;;;;;;12.73;5.90;;;;;-3.30;96960.00;;;;5072570;28;20048;-69
2024/01/17 01:37:58;;;;;;;10.45;5.35;;;;;-3.30;96958.00;;;;5072963;28;20045;-68
2024/01/17 01:40:25;;;;;;;9.98;5.53;;;;;-3.30;96958.00;;;;5072849;28;20517;-68
2024/01/17 01:42:53;;;;;;;11.82;5.95;;;;;-3.40;96955.00;;;;5071222;28;20048;-68
2024/01/17 01:45:19;;;;;;;11.27;6.18;;;;;-3.40;96944.00;;;;5072172;28;20049;-68
2024/01/17 01:47:46;;;;;;;12.18;6.18;;;;;-3.20;96955.00;;;;5072274;28;20052;-68
2024/01/17 01:50:13;;;;;;;11.55;5.85;;;;;-3.00;96957.00;;;;5072412;28;20139;-68
2024/01/17 01:52:44;;;;;;;16.55;7.15;;;;;-2.80;96961.00;;;;5071309;28;20512;-68
2024/01/17 01:55:11;;;;;;;21.38;7.63;;;;;-2.80;96948.00;;;;5071706;28;20045;-68
2024/01/17 01:57:39;;;;;;;15.73;6.90;;;;;-2.90;96951.00;;;;5072190;28;20049;-68
2024/01/17 02:00:06;;;;;;;18.52;7.20;;;;;-3.00;96945.00;;;;5072178;28;20083;-68
2024/01/17 02:02:38;;;;;;;14.00;6.88;;;;;-3.00;96929.00;;;;5071877;28;20068;-68
2024/01/17 02:05:05;;;;;;;27.45;10.88;;;;;-3.00;96934.00;;;;5070110;28;20045;-69
2024/01/17 02:07:33;;;;;;;19.02;7.95;;;;;-2.90;96921.00;;;;5070727;28;20076;-68
2024/01/17 02:10:01;;;;;;;14.40;6.22;;;;;-2.70;96922.00;;;;5072011;28;20079;-68
2024/01/17 02:12:28;;;;;;;16.90;6.97;;;;;-2.70;96917.00;;;;5071740;28;20049;-68
2024/01/17 02:14:54;;;;;;;15.77;7.15;;;;;-2.80;96913.00;;;;5074550;28;20036;-69
2024/01/17 02:17:22;;;;;;;18.85;8.35;;;;;-2.80;96910.00;;;;5087137;28;20037;-68
2024/01/17 02:19:48;;;;;;;12.57;7.40;;;;;-2.90;96905.00;;;;5083133;28;20123;-68
2024/01/17 02:22:15;;;;;;;19.92;8.48;;;;;-2.90;96895.00;;;;5084918;28;20055;-68
2024/01/17 02:24:41;;;;;;;8.25;4.97;;;;;-2.90;96895.00;;;;5087841;28;20040;-68
2024/01/17 02:27:08;;;;;;;11.70;5.25;;;;;-2.90;96888.00;;;;5085607;28;20447;-68
2024/01/17 02:29:35;;;;;;;9.38;5.55;;;;;-2.90;96873.00;;;;5084880;28;20041;-68
2024/01/17 02:32:02;;;;;;;14.82;8.48;;;;;-2.90;96871.00;;;;5086925;28;20044;-68
2024/01/17 02:34:30;;;;;;;12.25;6.25;;;;;-2.90;96868.00;;;;5088110;28;20067;-67
2024/01/17 02:36:56;;;;;;;12.23;6.95;;;;;-3.00;96852.00;;;;5084763;28;20048;-67
2024/01/17 02:39:24;;;;;;;9.98;5.47;;;;;-3.10;96855.00;;;;5093140;28;20052;-67
2024/01/17 02:41:51;;;;;;;9.93;5.38;;;;;-3.20;96852.00;;;;5088189;28;20083;-67
2024/01/17 02:44:17;;;;;;;10.02;4.80;;;;;-3.30;96847.00;;;;5085697;28;20041;-67
2024/01/17 02:46:44;;;;;;;10.38;5.70;;;;;-3.30;96851.00;;;;5085128;28;20048;-68
2024/01/17 02:49:15;;;;;;;12.27;5.13;;;;;-3.20;96840.00;;;;5091051;28;20059;-68
2024/01/17 02:51:42;;;;;;;11.10;4.90;;;;;-3.10;96838.00;;;;5091034;28;20104;-68
2024/01/17 02:54:08;;;;;;;6.20;4.63;;;;;-3.00;96835.00;;;;5091256;28;20041;-68
2024/01/17 02:56:35;;;;;;;8.20;4.28;;;;;-2.90;96834.00;;;;5095089;28;20041;-68
2024/01/17 02:59:02;;;;;;;9.38;4.60;;;;;-2.80;96822.00;;;;5093848;28;20056;-68
2024/01/17 03:01:28;;;;;;;7.22;4.63;;;;;-2.80;96825.00;;;;5096172;28;20079;-68
2024/01/17 03:03:55;;;;;;;9.85;5.38;;;;;-2.70;96829.00;;;;5077714;28;20616;-68
2024/01/17 03:06:21;;;;;;;11.13;4.88;;;;;-2.80;96803.00;;;;5094574;28;20044;-68
2024/01/17 03:08:48;;;;;;;9.23;4.63;;;;;-2.80;96804.00;;;;5097357;28;20103;-68
2024/01/17 03:11:15;;;;;;;9.18;4.65;;;;;-2.90;96810.00;;;;5094231;28;20036;-68
2024/01/17 03:13:41;;;;;;;8.63;4.78;;;;;-2.90;96813.00;;;;5094597;28;20024;-67
2024/01/17 03:16:08;;;;;;;9.68;5.05;;;;;-2.80;96817.00;;;;5094603;28;20112;-68
2024/01/17 03:18:37;;;;;;;7.80;4.97;;;;;-2.80;96798.00;;;;5093598;28;20104;-68
2024/01/17 03:21:04;;;;;;;8.65;5.80;;;;;-2.80;96800.00;;;;5079721;28;20143;-69
2024/01/17 03:23:31;;;;;;;8.18;4.30;;;;;-2.80;96795.00;;;;5075605;28;20045;-68
2024/01/17 03:25:58;;;;;;;6.03;4.25;;;;;-2.80;96781.00;;;;5073289;28;20037;-68
2024/01/17 03:28:25;;;;;;;7.70;4.32;;;;;-2.80;96781.00;;;;5073183;28;20049;-68
2024/01/17 03:30:52;;;;;;;10.05;4.55;;;;;-2.90;96773.00;;;;5074213;28;20053;-69
2024/01/17 03:33:18;;;;;;;10.07;5.15;;;;;-2.90;96781.00;;;;5074319;28;20044;-69
2024/01/17 03:35:45;;;;;;;9.63;4.68;;;;;-2.80;96773.00;;;;5073918;28;20098;-69
2024/01/17 03:38:12;;;;;;;10.93;5.30;;;;;-2.70;96763.00;;;;5074046;28;20070;-68
2024/01/17 03:40:38;;;;;;;8.85;4.88;;;;;-2.60;96764.00;;;;5074148;28;20044;-69
2024/01/17 03:43:05;;;;;;;10.77;4.80;;;;;-2.60;96740.00;;;;5074053;28;20037;-69
2024/01/17 03:45:31;;;;;;;10.52;5.13;;;;;-2.70;96735.00;;;;5073224;28;20505;-69
2024/01/17 03:47:58;;;;;;;7.13;5.30;;;;;-2.70;96728.00;;;;5073525;28;20059;-69
2024/01/17 03:50:25;;;;;;;9.27;4.80;;;;;-2.80;96727.00;;;;5055709;28;20383;-69
2024/01/17 03:52:51;;;;;;;7.20;5.15;;;;;-2.80;96710.00;;;;5073642;28;20118;-69
2024/01/17 03:55:18;;;;;;;7.80;4.43;;;;;-2.80;96707.00;;;;5071846;28;20115;-69
2024/01/17 03:57:45;;;;;;;9.85;5.63;;;;;-2.80;96713.00;;;;5073525;28;20076;-68
2024/01/17 04:00:11;;;;;;;9.23;5.63;;;;;-2.70;96703.00;;;;5073453;28;20079;-69
2024/01/17 04:02:38;;;;;;;8.27;4.90;;;;;-2.70;96694.00;;;;5083554;28;20071;-69
2024/01/17 04:05:05;;;;;;;8.95;5.55;;;;;-2.70;96686.00;;;;5076279;28;20123;-71
2024/01/17 04:07:32;;;;;;;13.18;5.07;;;;;-2.60;96681.00;;;;5073593;28;20045;-70
2024/01/17 04:09:59;;;;;;;9.27;6.07;;;;;-2.70;96668.00;;;;5073756;28;20056;-70
2024/01/17 04:12:25;;;;;;;10.65;5.43;;;;;-2.60;96665.00;;;;5072863;28;20102;-70
2024/01/17 04:14:52;;;;;;;13.95;5.82;;;;;-2.50;96661.00;;;;5083555;28;20108;-70
2024/01/17 04:17:18;;;;;;;10.20;5.38;;;;;-2.40;96650.00;;;;5085955;28;20041;-70
2024/01/17 04:19:45;;;;;;;10.38;6.22;;;;;-2.50;96635.00;;;;5084143;28;20074;-69
2024/01/17 04:22:12;;;;;;;12.07;5.53;;;;;-2.40;96632.00;;;;5085598;28;20055;-69
2024/01/17 04:24:38;;;;;;;15.68;8.23;;;;;-2.20;96629.00;;;;5080264;28;20051;-70
2024/01/17 04:27:05;;;;;;;12.48;6.90;;;;;-2.30;96628.00;;;;5082437;28;20048;-70
2024/01/17 04:29:34;;;;;;;12.43;6.18;;;;;-2.30;96623.00;;;;5083534;28;20068;-70
2024/01/17 04:32:00;;;;;;;8.93;5.78;;;;;-2.20;96613.00;;;;5075377;28;20049;-70
2024/01/17 04:34:27;;;;;;;11.20;5.88;;;;;-2.00;96601.00;;;;5073374;28;20072;-71
2024/01/17 04:36:53;;;;;;;12.48;6.43;;;;;-1.90;96604.00;;;;5072713;28;20036;-70
2024/01/17 04:39:20;;;;;;;11.45;6.25;;;;;-1.80;96592.00;;;;5072582;28;20493;-70
2024/01/17 04:41:47;;;;;;;13.27;6.47;;;;;-1.80;96586.00;;;;5072873;28;20072;-69
2024/01/17 04:44:13;;;;;;;10.20;6.82;;;;;-1.80;96592.00;;;;5073040;28;20505;-69
2024/01/17 04:46:40;;;;;;;15.20;7.03;;;;;-1.70;96582.00;;;;5056055;28;20070;-70
2024/01/17 04:49:07;;;;;;;12.95;6.18;;;;;-1.50;96583.00;;;;5073567;28;20094;-70
2024/01/17 04:51:34;;;;;;;12.20;6.82;;;;;-1.50;96574.00;;;;5073647;28;20127;-68
2024/01/17 04:54:01;;;;;;;11.45;6.72;;;;;-1.50;96569.00;;;;5071415;28;20068;-69
2024/01/17 04:56:28;;;;;;;10.90;6.30;;;;;-1.50;96562.00;;;;5073328;28;20113;-68
2024/01/17 04:58:56;;;;;;;11.05;6.60;;;;;-1.50;96559.00;;;;5073145;28;20040;-69
2024/01/17 05:01:22;;;;;;;9.98;5.70;;;;;-1.50;96551.00;;;;5075735;28;20072;-69
2024/01/17 05:03:49;;;;;;;11.15;6.25;;;;;-1.50;96541.00;;;;5075416;28;20120;-69
2024/01/17 05:06:16;;;;;;;10.98;5.85;;;;;-1.40;96552.00;;;;5075303;28;20042;-69
2024/01/17 05:08:42;;;;;;;10.57;5.22;;;;;-1.40;96556.00;;;;5075672;28;20477;-69
2024/01/17 05:11:09;;;;;;;11.10;6.50;;;;;-1.40;96538.00;;;;5074284;28;20048;-69
2024/01/17 05:13:37;;;;;;;10.85;5.75;;;;;-1.30;96543.00;;;;5073518;28;20056;-69
2024/01/17 05:16:03;;;;;;;12.15;6.53;;;;;-1.40;96534.00;;;;5073547;28;20042;-69
2024/01/17 05:18:30;;;;;;;12.15;6.15;;;;;-1.50;96525.00;;;;5073431;28;20059;-69
2024/01/17 05:20:57;;;;;;;11.77;5.93;;;;;-1.60;96517.00;;;;5075765;28;20037;-69
2024/01/17 05:23:24;;;;;;;11.82;6.38;;;;;-1.70;96513.00;;;;5075500;28;20147;-68
2024/01/17 05:25:50;;;;;;;11.32;6.45;;;;;-1.70;96510.00;;;;5073206;28;20045;-71
2024/01/17 05:28:17;;;;;;;14.02;6.07;;;;;-1.70;96508.00;;;;5072292;28;20055;-70
2024/01/17 05:30:44;;;;;;;10.40;5.43;;;;;-1.60;96497.00;;;;5055709;28;20511;-70
2024/01/17 05:33:10;;;;;;;9.95;5.38;;;;;-1.60;96493.00;;;;5072319;28;20045;-70
2024/01/17 05:35:37;;;;;;;8.07;5.68;;;;;-1.60;96485.00;;;;5072847;28;20044;-70
2024/01/17 05:38:04;;;;;;;10.18;5.97;;;;;-1.50;96479.00;;;;5073596;28;20087;-69
2024/01/17 05:40:30;;;;;;;10.45;6.13;;;;;-1.40;96472.00;;;;5055277;28;20056;-70
2024/01/17 05:42:57;;;;;;;8.82;5.80;;;;;-1.40;96466.00;;;;5072942;28;20135;-68
2024/01/17 05:45:24;;;;;;;11.20;6.75;;;;;-1.30;96466.00;;;;5071088;28;20048;-69
2024/01/17 05:47:51;;;;;;;13.27;6.25;;;;;-1.20;96467.00;;;;5072051;28;20135;-69
2024/01/17 05:50:17;;;;;;;14.52;6.40;;;;;-1.20;96452.00;;;;5075593;28;20048;-69
2024/01/17 05:52:50;;;;;;;11.40;6.75;;;;;-1.20;96460.00;;;;5076463;28;20071;-70
2024/01/17 05:55:19;;;;;;;9.50;5.68;;;;;-1.10;96455.00;;;;5074151;28;20094;-70
2024/01/17 05:57:45;;;;;;;12.55;6.18;;;;;-1.10;96450.00;;;;5075273;28;20090;-69
2024/01/17 06:00:13;;;;;;;9.40;6.10;;;;;-1.10;96441.00;;;;5076813;28;20056;-68
2024/01/17 06:02:41;;;;;;;12.10;6.75;;;;;-1.00;96447.00;;;;5075662;28;20500;-68
2024/01/17 06:05:08;;;;;;;11.93;6.68;;;;;-0.80;96447.00;;;;5076224;28;20051;-68
2024/01/17 06:07:35;;;;;;;14.57;6.68;;;;;-0.80;96447.00;;;;5058578;28;20493;-69
2024/01/17 06:10:03;;;;;;;12.15;6.30;;;;;-0.90;96426.00;;;;5076164;28;20098;-71
2024/01/17 06:12:29;;;;;;;8.73;7.03;;;;;-0.90;96421.00;;;;5074737;28;20078;-70
2024/01/17 06:14:56;;;;;;;11.65;7.10;;;;;-0.70;96427.00;;;;5075138;28;20115;-70
2024/01/17 06:17:23;;;;;;;12.63;7.20;;;;;-0.60;96410.00;;;;5074339;28;20135;-70
2024/01/17 06:19:49;;;;;;;11.38;7.95;;;;;-0.70;96408.00;;;;5079278;28;20102;-70
2024/01/17 06:22:19;;;;;;;13.13;6.85;;;;;-0.70;96399.00;;;;5076146;28;20443;-70
2024/01/17 06:24:46;;;;;;;11.95;7.43;;;;;-0.80;96394.00;;;;5075550;28;20044;-70
2024/01/17 06:27:14;;;;;;;13.00;6.60;;;;;-0.80;96384.00;;;;5076159;28;20413;-70
2024/01/17 06:29:42;;;;;;;10.05;6.25;;;;;-0.70;96383.00;;;;5075098;28;20048;-70
2024/01/17 06:32:09;;;;;;;11.77;7.22;;;;;-0.70;96379.00;;;;5075492;28;20048;-69
2024/01/17 06:34:36;;;;;;;12.40;7.00;;;;;-0.70;96374.00;;;;5073411;28;20047;-70
2024/01/17 06:37:04;;;;;;;13.82;7.30;;;;;-0.70;96360.00;;;;5074906;28;20045;-70
2024/01/17 06:39:32;;;;;;;14.23;7.95;;;;;-0.80;96368.00;;;;5075043;28;20036;-72
2024/01/17 06:41:58;;;;;;;13.50;7.60;;;;;-0.70;96365.00;;;;5074637;28;20047;-71
2024/01/17 06:44:27;;;;;;;13.65;7.95;;;;;-0.50;96365.00;;;;5074070;28;20497;-72
2024/01/17 06:46:54;;;;;;;16.13;7.53;;;;;-0.40;96354.00;;;;5073501;28;20421;-71
2024/01/17 06:49:21;;;;;;;11.77;7.68;;;;;-0.40;96352.00;;;;5074602;28;20048;-71
2024/01/17 06:51:47;;;;;;;14.10;7.47;;;;;-0.40;96346.00;;;;5074589;28;20120;-71
2024/01/17 06:54:14;;;;;;;14.13;8.18;;;;;-0.40;96348.00;;;;5072905;28;20124;-71
2024/01/17 06:56:41;;;;;;;15.57;7.50;;;;;-0.50;96348.00;;;;5074951;28;20090;-71
2024/01/17 06:59:07;;;;;;;17.10;9.07;;;;;-0.50;96342.00;;;;5075154;28;20040;-71
2024/01/17 07:01:35;;;;;;;14.00;8.10;;;;;-0.40;96338.00;;;;5078981;28;20051;-71
2024/01/17 07:04:02;;;;;;;14.40;7.35;;;;;-0.40;96342.00;;;;5074947;28;20060;-71
2024/01/17 07:06:29;;;;;;;15.18;8.75;;;;;-0.40;96333.00;;;;5093908;28;20040;-71
2024/01/17 07:08:55;;;;;;;13.18;8.23;;;;;-0.40;96339.00;;;;5094623;28;20047;-71
2024/01/17 07:11:22;;;;;;;17.33;8.32;;;;;-0.30;96328.00;;;;5082516;28;20062;-70
2024/01/17 07:13:48;;;;;;;12.65;7.65;;;;;-0.30;96324.00;;;;5074759;28;20343;-71
2024/01/17 07:16:15;;;;;;;14.73;8.70;;;;;-0.20;96333.00;;;;5076971;28;20048;-71
2024/01/17 07:18:42;;;;;;;14.93;8.10;;;;;-0.20;96321.00;;;;5076970;28;20072;-71
2024/01/17 07:21:09;;;;;;;15.88;8.68;;;;;-0.20;96312.00;;;;5078309;28;20044;-71
2024/01/17 07:23:37;;;;;;;13.10;7.53;;;;;-0.10;96306.00;;;;5076360;28;20040;-71
2024/01/17 07:26:04;;;;;;;18.17;9.02;;;;;-0.10;96300.00;;;;5076297;28;20041;-71
2024/01/17 07:28:31;;;;;;;16.90;8.93;;;;;0.00;96303.00;;;;5079207;28;20060;-71
2024/01/17 07:30:57;;;;;;;15.15;8.25;;;;;0.00;96295.00;;;;5078764;28;20059;-71
2024/01/17 07:33:24;;;;;;;13.52;8.10;;;;;0.00;96295.00;;;;5077008;28;20059;-71
2024/01/17 07:35:51;;;;;;;13.48;7.57;;;;;0.00;96282.00;;;;5064553;28;20053;-71
2024/01/17 07:38:17;;;;;;;14.02;8.75;;;;;-0.10;96277.00;;;;5077698;28;20048;-71
2024/01/17 07:40:44;;;;;;;12.70;8.38;;;;;-0.10;96277.00;;;;5080190;28;20048;-71
2024/01/17 07:43:10;;;;;;;14.88;8.15;;;;;0.00;96267.00;;;;5080166;28;20083;-68
2024/01/17 07:45:37;;;;;;;16.60;9.25;;;;;0.10;96266.00;;;;5077420;28;20127;-68
2024/01/17 07:48:04;;;;;;;14.90;7.72;;;;;0.10;96258.00;;;;5074988;28;20119;-67
2024/01/17 07:50:31;;;;;;;19.55;9.93;;;;;0.10;96256.00;;;;5073709;28;20098;-67
2024/01/17 07:52:57;;;;;;;13.55;7.88;;;;;0.20;96253.00;;;;5073859;28;20045;-69
2024/01/17 07:55:24;;;;;;;14.10;8.02;;;;;0.20;96239.00;;;;5074200;28;20049;-68
2024/01/17 07:57:50;;;;;;;17.73;9.85;;;;;0.30;96238.00;;;;5074238;28;20570;-68
2024/01/17 08:00:18;;;;;;;19.25;9.75;;;;;0.30;96243.00;;;;5073495;28;20045;-68
2024/01/17 08:02:45;;;;;;;16.30;10.02;;;;;0.50;96232.00;;;;5073688;28;20047;-67
2024/01/17 08:05:12;;;;;;;21.63;11.15;;;;;0.50;96228.00;;;;5073355;28;20128;-68
2024/01/17 08:07:39;;;;;;;14.77;9.85;;;;;0.60;96233.00;;;;5072663;28;20048;-68
2024/01/17 08:10:06;;;;;;;20.27;10.05;;;;;0.50;96232.00;;;;5073938;28;20045;-68
2024/01/17 08:12:35;;;;;;;19.05;9.55;;;;;0.60;96230.00;;;;5073016;28;20045;-68
2024/01/17 08:15:01;;;;;;;15.80;9.65;;;;;0.60;96223.00;;;;5074709;28;20087;-68
2024/01/17 08:17:28;;;;;;;14.82;9.75;;;;;0.60;96222.00;;;;5073769;28;20048;-68
2024/01/17 08:19:58;;;;;;;15.90;9.35;;;;;0.60;96213.00;;;;5073873;28;20083;-68
2024/01/17 08:22:24;;;;;;;16.00;9.45;;;;;0.80;96213.00;;;;5072926;28;20477;-68
2024/01/17 08:24:51;;;;;;;14.88;9.30;;;;;0.90;96202.00;;;;5072423;28;20052;-67
2024/01/17 08:27:17;;;;;;;15.10;9.57;;;;;0.90;96196.00;;;;5072681;28;20104;-67
2024/01/17 08:29:46;;;;;;;18.25;8.80;;;;;0.90;96189.00;;;;5071255;28;20044;-66
2024/01/17 08:32:13;;;;;;;14.20;9.10;;;;;0.90;96191.00;;;;5072637;28;20044;-67
2024/01/17 08:34:39;;;;;;;19.60;9.63;;;;;0.80;96182.00;;;;5072140;28;20067;-66
2024/01/17 08:37:06;;;;;;;15.18;8.88;;;;;0.80;96174.00;;;;5071288;28;20051;-66
2024/01/17 08:39:32;;;;;;;18.38;8.82;;;;;0.80;96166.00;;;;5072454;28;20082;-66
2024/01/17 08:41:59;;;;;;;19.02;9.27;;;;;0.90;96157.00;;;;5072213;28;20044;-67
2024/01/17 08:44:26;;;;;;;16.90;9.32;;;;;1.00;96149.00;;;;5071883;28;20468;-67
2024/01/17 08:46:53;;;;;;;16.55;8.63;;;;;1.00;96153.00;;;;5072268;28;20124;-67
2024/01/17 08:49:20;;;;;;;19.13;9.07;;;;;1.10;96145.00;;;;5072014;28;20513;-67
2024/01/17 08:51:47;;;;;;;18.25;10.32;;;;;1.30;96143.00;;;;5071207;28;20055;-68
2024/01/17 08:54:13;;;;;;;14.18;8.60;;;;;1.40;96129.00;;;;5071936;28;20050;-67
2024/01/17 08:56:40;;;;;;;17.27;8.48;;;;;1.50;96120.00;;;;5072822;28;20489;-69
2024/01/17 08:59:07;;;;;;;16.77;8.32;;;;;1.50;96122.00;;;;5071518;28;20049;-68
2024/01/17 09:01:33;;;;;;;17.63;8.15;;;;;1.50;96116.00;;;;5071389;28;20036;-67
2024/01/17 09:04:00;;;;;;;13.60;8.73;;;;;1.50;96120.00;;;;5072272;28;20044;-69
2024/01/17 09:06:26;;;;;;;14.70;9.10;;;;;1.50;96115.00;;;;5071884;28;20045;-69
2024/01/17 09:08:53;;;;;;;14.82;8.10;;;;;1.70;96109.00;;;;5071378;28;20048;-68
2024/01/17 09:11:20;;;;;;;15.50;8.27;;;;;1.80;96091.00;;;;5071562;28;20071;-69
2024/01/17 09:13:48;;;;;;;16.42;8.80;;;;;1.80;96085.00;;;;5070829;28;20096;-69
2024/01/17 09:16:15;;;;;;;16.65;8.57;;;;;1.80;96069.00;;;;5071320;28;20037;-69
2024/01/17 09:18:41;;;;;;;20.02;8.70;;;;;1.80;96068.00;;;;5070954;28;20093;-69
2024/01/17 09:21:08;;;;;;;15.38;8.15;;;;;1.90;96067.00;;;;5071214;28;20043;-69
2024/01/17 09:23:35;;;;;;;17.13;8.93;;;;;2.00;96057.00;;;;5072193;28;20451;-69
2024/01/17 09:26:02;;;;;;;16.65;8.60;;;;;2.00;96062.00;;;;5076343;28;20417;-69
2024/01/17 09:28:31;;;;;;;16.02;9.30;;;;;2.10;96055.00;;;;5076560;28;20606;-69
2024/01/17 09:30:58;;;;;;;15.65;9.48;;;;;2.20;96048.00;;;;5075306;28;20043;-69
2024/01/17 09:33:26;;;;;;;16.08;9.10;;;;;2.30;96037.00;;;;5075948;28;20048;-69
2024/01/17 09:35:53;;;;;;;18.77;8.80;;;;;2.30;96036.00;;;;5076014;28;20045;-69
2024/01/17 09:38:28;;;;;;;14.05;8.27;;;;;2.20;96032.00;;;;5077348;28;20044;-68
2024/01/17 09:40:55;;;;;;;15.30;8.45;;;;;2.10;96038.00;;;;5076521;28;20097;-68
2024/01/17 09:43:22;;;;;;;15.52;9.13;;;;;2.20;96036.00;;;;5074749;28;20048;-69
2024/01/17 09:45:49;;;;;;;13.77;8.63;;;;;2.20;96034.00;;;;5075504;28;20119;-69
2024/01/17 09:48:18;;;;;;;13.65;8.80;;;;;2.10;96024.00;;;;5075514;28;20235;-69
2024/01/17 09:50:46;;;;;;;18.02;10.02;;;;;2.10;96024.00;;;;5075838;28;20040;-68
2024/01/17 09:53:16;;;;;;;20.45;9.48;;;;;2.20;96015.00;;;;5076276;28;20044;-69
2024/01/17 09:55:44;;;;;;;15.05;8.85;;;;;2.30;96015.00;;;;5075444;28;20047;-69
2024/01/17 09:58:12;;;;;;;15.60;8.88;;;;;2.30;96024.00;;;;5075904;28;20044;-69
2024/01/17 10:00:43;;;;;;;16.27;9.10;;;;;2.40;96015.00;;;;5058171;28;20479;-69
2024/01/17 10:03:20;;;;;;;16.17;9.23;;;;;2.40;96007.00;;;;5076432;28;20482;-69
2024/01/17 10:05:50;;;;;;;15.45;9.43;;;;;2.40;95999.00;;;;5075536;28;20478;-69
2024/01/17 10:08:18;;;;;;;18.95;9.70;;;;;2.30;95988.00;;;;5074179;28;20055;-68
2024/01/17 10:10:45;;;;;;;19.95;9.10;;;;;2.30;95994.00;;;;5076063;28;20053;-69
2024/01/17 10:13:12;;;;;;;15.40;9.52;;;;;2.20;95991.00;;;;5074230;28;20052;-69
2024/01/17 10:15:44;;;;;;;14.75;9.35;;;;;2.30;95990.00;;;;5073567;28;20493;-69
2024/01/17 10:18:12;;;;;;;17.35;9.18;;;;;2.50;95974.00;;;;5073996;28;20072;-69
2024/01/17 10:20:39;;;;;;;13.50;9.30;;;;;2.60;95967.00;;;;5057362;28;20144;-71
2024/01/17 10:23:08;;;;;;;18.45;9.98;;;;;2.60;95971.00;;;;5073639;28;20122;-69
2024/01/17 10:25:42;;;;;;;18.77;10.07;;;;;2.60;95958.00;;;;5073070;28;20055;-68
2024/01/17 10:28:09;;;;;;;15.30;9.63;;;;;2.70;95958.00;;;;5073657;28;20712;-69
2024/01/17 10:30:41;;;;;;;18.20;10.25;;;;;2.80;95957.00;;;;5073610;28;20083;-69
2024/01/17 10:33:08;;;;;;;16.27;10.10;;;;;2.80;95954.00;;;;5074106;28;20047;-69
2024/01/17 10:35:35;;;;;;;23.75;12.95;;;;;2.80;95944.00;;;;5072926;28;20044;-69
2024/01/17 10:38:03;;;;;;;19.33;11.75;;;;;3.00;95930.00;;;;5073427;28;20135;-69
2024/01/17 10:40:30;;;;;;;20.90;11.15;;;;;3.00;95936.00;;;;5074316;28;20139;-67
2024/01/17 10:43:10;;;;;;;16.42;10.50;;;;;3.00;95931.00;;;;5073263;28;20122;-67
2024/01/17 10:45:39;;;;;;;19.55;11.52;;;;;3.00;95919.00;;;;5072963;28;20044;-69
2024/01/17 10:48:10;;;;;;;19.10;11.65;;;;;3.00;95930.00;;;;5073108;28;20061;-69
2024/01/17 10:50:37;;;;;;;37.33;20.02;;;;;3.00;95931.00;;;;5073504;28;20058;-69
2024/01/17 10:53:05;;;;;;;51.05;25.75;;;;;3.00;95928.00;;;;5073032;28;20417;-67
2024/01/17 10:55:36;;;;;;;26.55;16.33;;;;;3.00;95916.00;;;;5072397;28;20036;-67
2024/01/17 10:58:11;;;;;;;24.90;12.60;;;;;2.90;95916.00;;;;5072906;28;20045;-67
2024/01/17 11:00:42;;;;;;;21.60;12.50;;;;;2.90;95905.00;;;;5056262;28;20049;-67
2024/01/17 11:03:20;;;;;;;29.00;12.82;;;;;2.90;95910.00;;;;5072858;28;20131;-67
2024/01/17 11:05:49;;;;;;;22.73;12.73;;;;;2.90;95908.00;;;;5055943;28;20052;-68
2024/01/17 11:08:18;;;;;;;24.17;13.43;;;;;2.80;95888.00;;;;5072688;28;20365;-68
2024/01/17 11:10:46;;;;;;;19.00;12.70;;;;;2.80;95884.00;;;;5072954;28;20040;-68
2024/01/17 11:13:15;;;;;;;20.20;13.18;;;;;2.80;95871.00;;;;5072642;28;20086;-68
2024/01/17 11:15:43;;;;;;;22.83;13.60;;;;;2.90;95873.00;;;;5072198;28;20051;-68
2024/01/17 11:18:11;;;;;;;22.60;14.00;;;;;2.80;95857.00;;;;5072528;28;20091;-69
2024/01/17 11:20:39;;;;;;;22.30;13.05;;;;;2.80;95838.00;;;;5072603;28;20048;-69
2024/01/17 11:23:08;;;;;;;20.15;12.93;;;;;2.90;95831.00;;;;5073912;28;20032;-69
2024/01/17 11:25:48;;;;;;;26.00;14.70;;;;;3.10;95836.00;;;;5071686;28;20144;-70
2024/01/17 11:28:28;;;;;;;21.98;13.38;;;;;3.20;95838.00;;;;5072447;28;20093;-69
2024/01/17 11:31:27;;;;;;;24.33;14.52;;;;;3.40;95831.00;;;;5072480;28;20045;-70
2024/01/17 11:33:54;;;;;;;22.10;13.63;;;;;3.40;95826.00;;;;5072232;28;20053;-69
2024/01/17 11:36:41;;;;;;;26.75;14.75;;;;;3.50;95827.00;;;;5072537;28;20036;-70
2024/01/17 11:39:10;;;;;;;22.90;13.75;;;;;3.50;95824.00;;;;5073809;28;20776;-69
2024/01/17 11:41:40;;;;;;;20.42;13.38;;;;;3.50;95834.00;;;;5073442;28;20048;-70
2024/01/17 11:44:09;;;;;;;18.67;13.60;;;;;3.40;95819.00;;;;5073056;28;20056;-71
2024/01/17 11:46:37;;;;;;;19.60;13.45;;;;;3.40;95802.00;;;;5072958;28;20094;-69
2024/01/17 11:49:05;;;;;;;18.45;12.38;;;;;3.40;95800.00;;;;5073278;28;20105;-69
2024/01/17 11:51:34;;;;;;;22.08;13.35;;;;;3.40;95785.00;;;;5073357;28;20070;-70
2024/01/17 11:54:04;;;;;;;20.20;12.82;;;;;3.40;95783.00;;;;5071486;28;20047;-70
2024/01/17 11:56:31;;;;;;;19.42;13.27;;;;;3.40;95781.00;;;;5072362;28;20402;-69
2024/01/17 11:59:05;;;;;;;19.25;13.73;;;;;3.50;95764.00;;;;5073248;28;20074;-70
2024/01/17 12:01:31;;;;;;;21.67;13.40;;;;;3.30;95746.00;;;;5055410;28;20048;-70
2024/01/17 12:03:58;;;;;;;22.15;13.60;;;;;3.30;95748.00;;;;5071445;28;20041;-70
2024/01/17 12:06:24;;;;;;;19.48;12.43;;;;;3.30;95734.00;;;;5054632;28;20493;-70
2024/01/17 12:08:52;;;;;;;21.67;12.48;;;;;3.30;95706.00;;;;5071705;28;20048;-70
2024/01/17 12:11:20;;;;;;;18.92;12.35;;;;;3.30;95702.00;;;;5071674;28;20045;-70
2024/01/17 12:13:48;;;;;;;19.73;14.13;;;;;3.30;95705.00;;;;5071090;28;20537;-70